Natrona Heights, Pennsylvania
Current Conditions -  °F | °C
As of 5:55 AM on Friday 19 Dec 2014 (Local Time) from KBTP Reporting Station
Overcast Overcast  
Wind Chill: 22°   Ceiling: 500
Heat Index: 28°   Visibility: 3mi
Dew Point: 27°   Wind: 6mph
Humidity: 93%   Direction: 250°WSW
Pressure: 30.14"   Gusts: NA
Location:  40.62°N, 79.73°W
Report Text: KBTP 191055Z AUTO 25005KT 3SM OVC005 M02/M03 A3014 RMK AO1
Loading
Personal Weather Stations






























Interactive Weather Map New forecast layout! Learn more

10-Day Weather Forecast

Advertisements
Track Severe Weather on mobile